Time;durP1;ratioP1;P1;durP2;ratioP2;P2;SDS_P1;SDS_P2;PMS_P1;PMS_P2;Temp;Humidity;BMP_temperature;BMP_pressure;BME280_temperature;BME280_humidity;BME280_pressure;Samples;Min_cycle;Max_cycle;Signal;HPM_P1;HPM_P2
2022/03/06 00:01:54;;;;;;;9.38;4.72;;;;;;;-1.76;57.10;99987.88;5041224;28;20053;-81
2022/03/06 00:04:21;;;;;;;9.57;4.15;;;;;;;-1.97;57.33;99933.81;5033026;28;20053;-80
2022/03/06 00:06:48;;;;;;;9.23;4.40;;;;;;;-1.93;57.33;99943.44;5046708;28;20064;-81
2022/03/06 00:09:15;;;;;;;6.18;3.90;;;;;;;-1.74;57.36;99975.13;5053452;28;20068;-81
2022/03/06 00:11:45;;;;;;;8.35;4.10;;;;;;;-1.75;57.13;99970.81;5052703;28;20053;-80
2022/03/06 00:14:13;;;;;;;10.02;4.55;;;;;;;-1.68;57.39;99981.50;5052686;28;20060;-83
2022/03/06 00:16:42;;;;;;;8.90;4.35;;;;;;;-1.72;57.46;99988.91;5052824;28;20504;-82
2022/03/06 00:19:09;;;;;;;8.57;4.25;;;;;;;-1.89;57.12;99952.16;5052762;28;20455;-82
2022/03/06 00:21:37;;;;;;;8.82;4.32;;;;;;;-1.82;57.74;99981.53;5053764;28;20052;-80
2022/03/06 00:24:04;;;;;;;7.32;4.25;;;;;;;-1.92;57.63;99967.34;5052524;28;20057;-79
2022/03/06 00:26:32;;;;;;;6.00;3.67;;;;;;;-1.92;57.73;99975.03;5051517;28;20143;-81
2022/03/06 00:28:59;;;;;;;6.68;3.17;;;;;;;-2.12;57.59;99954.34;5046043;28;20064;-81
2022/03/06 00:31:26;;;;;;;4.90;3.22;;;;;;;-2.11;58.00;99968.91;5046492;28;20144;-81
2022/03/06 00:33:53;;;;;;;6.55;2.85;;;;;;;-2.31;57.98;99936.19;5051328;28;20436;-80
2022/03/06 00:36:22;;;;;;;6.50;3.13;;;;;;;-2.32;58.24;99931.88;5051824;28;20107;-82
2022/03/06 00:38:49;;;;;;;5.65;3.45;;;;;;;-2.13;58.03;99961.91;5053848;28;20103;-80
2022/03/06 00:41:16;;;;;;;5.68;3.45;;;;;;;-2.34;57.68;99931.78;5052013;28;20053;-80
2022/03/06 00:43:44;;;;;;;4.38;2.50;;;;;;;-2.59;57.81;99916.72;5054785;28;20574;-80
2022/03/06 00:46:11;;;;;;;6.05;2.88;;;;;;;-2.49;57.87;99923.25;5055980;28;20076;-80
2022/03/06 00:48:38;;;;;;;3.60;2.47;;;;;;;-2.33;58.26;99983.84;5055597;28;20394;-81
2022/03/06 00:51:05;;;;;;;4.20;2.67;;;;;;;-2.56;58.43;99932.28;5054888;28;20053;-82
2022/03/06 00:53:32;;;;;;;4.05;2.65;;;;;;;-2.35;58.41;99973.50;5056539;28;20049;-81
2022/03/06 00:55:59;;;;;;;5.82;3.20;;;;;;;-2.40;58.74;99964.72;5055896;28;20084;-81
2022/03/06 00:58:27;;;;;;;5.43;2.83;;;;;;;-2.33;58.54;99979.59;5055246;28;20055;-79
2022/03/06 01:00:53;;;;;;;4.45;2.67;;;;;;;-2.43;58.83;99968.75;5056463;28;20064;-81
2022/03/06 01:03:21;;;;;;;4.43;2.90;;;;;;;-2.51;58.71;99955.56;5056481;28;20064;-79
2022/03/06 01:05:49;;;;;;;4.35;3.08;;;;;;;-2.44;58.89;99964.44;5056503;28;20056;-80
2022/03/06 01:08:16;;;;;;;5.47;2.53;;;;;;;-2.40;58.95;99969.81;5055226;28;20106;-81
2022/03/06 01:10:45;;;;;;;7.32;2.65;;;;;;;-2.36;59.02;99960.66;5056544;28;20083;-81
2022/03/06 01:13:16;;;;;;;4.90;2.90;;;;;;;-2.37;58.96;99964.00;5056496;28;20489;-80
2022/03/06 01:15:43;;;;;;;4.03;2.65;;;;;;;-2.47;58.98;99976.28;5058392;28;20045;-80
2022/03/06 01:18:10;;;;;;;4.82;2.65;;;;;;;-2.63;59.29;99954.84;5057343;28;20060;-80
2022/03/06 01:20:41;;;;;;;3.67;2.50;;;;;;;-2.68;59.43;99965.69;5056599;28;20049;-80
2022/03/06 01:23:08;;;;;;;4.20;2.70;;;;;;;-2.88;59.99;99948.34;5056269;28;20110;-81
2022/03/06 01:25:38;;;;;;;;;;;;;;;-3.00;60.18;99948.47;5056671;28;20497;-79
2022/03/06 01:28:06;;;;;;;3.55;2.28;;;;;;;-3.11;60.78;99955.53;5055621;28;19931;-82
2022/03/06 01:30:33;;;;;;;5.60;2.63;;;;;;;-3.12;60.82;99958.88;5037979;28;20462;-81
2022/03/06 01:33:08;;;;;;;4.88;2.60;;;;;;;-3.15;60.85;99979.13;5055197;28;20052;-85
2022/03/06 01:35:35;;;;;;;4.07;2.13;;;;;;;-3.19;60.73;99969.50;5055477;28;20484;-83
2022/03/06 01:38:01;;;;;;;4.85;2.50;;;;;;;-3.21;61.10;99965.09;5056050;28;20053;-82
2022/03/06 01:40:29;;;;;;;4.00;2.22;;;;;;;-3.19;61.12;99961.84;5055782;28;20055;-82
2022/03/06 01:42:56;;;;;;;4.75;2.50;;;;;;;-3.14;61.12;99964.66;5055745;28;20048;-80
2022/03/06 01:45:26;;;;;;;4.22;2.65;;;;;;;-3.04;60.69;99950.78;5055778;28;20085;-81
2022/03/06 01:47:55;;;;;;;3.40;2.40;;;;;;;-3.05;60.65;99937.13;5055879;28;20057;-81
2022/03/06 01:50:32;;;;;;;3.22;2.20;;;;;;;-3.10;60.81;99952.19;5056448;28;20144;-81
2022/03/06 01:53:03;;;;;;;3.58;2.17;;;;;;;-2.99;60.86;99951.91;5050921;28;20548;-81
2022/03/06 01:55:33;;;;;;;4.13;2.30;;;;;;;-2.98;60.95;99953.69;5042993;28;20053;-82
2022/03/06 01:58:07;;;;;;;3.30;2.40;;;;;;;-3.03;61.09;99952.53;5034759;28;20091;-82
2022/03/06 02:00:48;;;;;;;6.70;2.65;;;;;;;-3.11;61.33;99945.28;5049289;28;20421;-81
2022/03/06 02:03:20;;;;;;;4.18;2.88;;;;;;;-3.19;61.41;99935.41;5055923;28;20053;-79
2022/03/06 02:05:48;;;;;;;4.85;3.28;;;;;;;-3.37;61.72;99912.22;5055518;28;20049;-81
2022/03/06 02:08:16;;;;;;;4.05;2.88;;;;;;;-3.27;61.84;99954.50;5054746;28;20144;-80
2022/03/06 02:10:43;;;;;;;6.13;2.83;;;;;;;-3.42;62.31;99957.03;5056231;28;20579;-80
2022/03/06 02:13:09;;;;;;;6.07;3.28;;;;;;;-3.49;62.37;99955.78;5057230;28;20500;-81
2022/03/06 02:15:37;;;;;;;5.65;3.05;;;;;;;-3.65;62.72;99948.88;5058004;28;20589;-81
2022/03/06 02:18:07;;;;;;;5.35;3.10;;;;;;;-3.85;63.07;99924.69;5068233;28;20025;-81
2022/03/06 02:20:36;;;;;;;5.65;3.03;;;;;;;-3.84;63.17;99953.63;5073019;28;20036;-80
2022/03/06 02:23:03;;;;;;;6.03;3.42;;;;;;;-4.00;63.58;99934.81;5075090;28;20037;-83
2022/03/06 02:25:35;;;;;;;6.25;3.50;;;;;;;-4.04;63.98;99948.16;5057818;28;20055;-80
2022/03/06 02:28:06;;;;;;;6.68;3.53;;;;;;;-4.11;63.88;99933.25;5055875;28;20053;-80
2022/03/06 02:30:34;;;;;;;;;;;;;;;-4.15;63.62;99947.50;5055855;28;20057;-80
2022/03/06 02:33:04;;;;;;;9.20;3.75;;;;;;;-4.15;64.06;99961.91;5055957;28;19924;-79
2022/03/06 02:35:31;;;;;;;7.72;3.97;;;;;;;-4.20;64.61;99946.31;5055626;28;20060;-81
2022/03/06 02:37:58;;;;;;;7.00;3.60;;;;;;;-4.21;64.53;99956.44;5065887;28;20037;-78
2022/03/06 02:40:25;;;;;;;7.22;3.75;;;;;;;-4.24;64.91;99946.03;5073568;28;20029;-79
2022/03/06 02:42:54;;;;;;;6.15;3.17;;;;;;;-4.36;65.18;99924.06;5072113;28;20060;-80
2022/03/06 02:45:26;;;;;;;6.80;3.83;;;;;;;-4.51;64.87;99904.38;5058107;28;20053;-80
2022/03/06 02:47:55;;;;;;;6.32;3.70;;;;;;;-4.54;65.25;99911.03;5055254;28;20053;-79
2022/03/06 02:50:47;;;;;;;7.65;3.63;;;;;;;-4.49;65.03;99924.06;5054857;28;20087;-81
2022/03/06 02:53:42;;;;;;;8.65;3.90;;;;;;;-4.46;65.51;99959.06;5053572;28;20421;-80
2022/03/06 02:56:11;;;;;;;6.43;3.40;;;;;;;-4.54;65.71;99927.97;5054437;28;20052;-81
2022/03/06 02:58:39;;;;;;;6.05;3.30;;;;;;;-4.53;65.71;99937.41;5020360;28;20040;-81
2022/03/06 03:01:07;;;;;;;10.48;4.00;;;;;;;-4.57;66.00;99940.53;5053491;28;20059;-81
2022/03/06 03:03:39;;;;;;;9.05;3.95;;;;;;;-4.88;66.70;99895.22;5053056;28;20052;-80
2022/03/06 03:06:07;;;;;;;12.05;5.40;;;;;;;-4.70;66.35;99943.09;5052608;28;20052;-80
2022/03/06 03:08:34;;;;;;;12.98;6.18;;;;;;;-4.70;66.17;99951.59;5052891;28;20110;-80
2022/03/06 03:11:01;;;;;;;11.05;5.28;;;;;;;-4.70;66.58;99956.69;5054630;28;20065;-80
2022/03/06 03:13:28;;;;;;;15.95;6.53;;;;;;;-4.85;66.74;99922.56;5053206;28;20076;-80
2022/03/06 03:15:56;;;;;;;13.52;7.43;;;;;;;-4.76;66.80;99941.88;5054349;28;20060;-80
2022/03/06 03:18:23;;;;;;;17.10;8.68;;;;;;;-4.89;67.02;99941.88;5054452;28;20516;-81
2022/03/06 03:20:50;;;;;;;13.95;7.80;;;;;;;-4.96;67.31;99935.50;5053938;28;20409;-81
2022/03/06 03:23:17;;;;;;;16.02;8.27;;;;;;;-5.10;66.76;99943.00;5055164;28;20087;-80
2022/03/06 03:25:44;;;;;;;14.00;7.60;;;;;;;-4.93;67.37;99955.19;5053954;28;20103;-80
2022/03/06 03:28:11;;;;;;;15.60;7.25;;;;;;;-4.94;67.63;99955.97;5054686;28;20144;-80
2022/03/06 03:30:38;;;;;;;14.20;7.00;;;;;;;-4.96;67.48;99949.91;5055683;28;20048;-80
2022/03/06 03:33:07;;;;;;;12.10;6.00;;;;;;;-4.98;67.45;99946.38;5063302;28;20048;-81
2022/03/06 03:35:35;;;;;;;12.68;6.60;;;;;;;-5.00;67.35;99943.72;5053456;28;20140;-79
2022/03/06 03:38:02;;;;;;;14.48;6.93;;;;;;;-5.01;67.50;99938.50;5052758;28;20138;-80
2022/03/06 03:40:29;;;;;;;19.33;8.35;;;;;;;-5.02;67.73;99926.56;5053440;28;20057;-79
2022/03/06 03:42:56;;;;;;;13.32;6.30;;;;;;;-5.02;67.85;99936.75;5053654;28;20143;-80
2022/03/06 03:45:25;;;;;;;12.43;5.68;;;;;;;-4.99;67.68;99922.56;5052914;28;20087;-80
2022/03/06 03:47:52;;;;;;;13.97;5.60;;;;;;;-5.03;68.11;99915.50;5052630;28;20068;-80
2022/03/06 03:50:19;;;;;;;9.82;5.57;;;;;;;-4.96;67.73;99920.19;5052968;28;20080;-80
2022/03/06 03:52:47;;;;;;;9.52;4.75;;;;;;;-4.92;67.96;99922.97;5054174;28;20061;-80
2022/03/06 03:55:15;;;;;;;13.43;5.45;;;;;;;-4.96;67.65;99904.91;5052797;28;20131;-81
2022/03/06 03:57:42;;;;;;;11.60;4.97;;;;;;;-5.06;67.82;99883.81;5056816;28;20080;-80
2022/03/06 04:00:09;;;;;;;11.15;4.32;;;;;;;-4.96;67.91;99896.38;5054929;28;20053;-80
2022/03/06 04:02:36;;;;;;;11.07;4.40;;;;;;;-4.81;67.88;99905.03;5052834;28;20444;-80
2022/03/06 04:05:04;;;;;;;8.73;4.20;;;;;;;-4.94;67.82;99867.69;5052332;28;20057;-81
2022/03/06 04:07:36;;;;;;;10.50;4.50;;;;;;;-4.74;68.03;99899.53;5052605;28;20436;-79
2022/03/06 04:10:03;;;;;;;15.80;4.57;;;;;;;-4.83;67.57;99864.94;5053532;28;20041;-81
2022/03/06 04:12:30;;;;;;;9.35;4.35;;;;;;;-4.63;67.90;99907.00;5051762;28;20048;-80
2022/03/06 04:14:57;;;;;;;7.93;3.78;;;;;;;-4.62;68.05;99896.03;5051747;28;20472;-82
2022/03/06 04:17:24;;;;;;;9.02;4.40;;;;;;;-4.56;67.75;99889.66;5058062;28;20076;-81
2022/03/06 04:19:54;;;;;;;11.07;3.88;;;;;;;-4.66;67.83;99860.94;5060827;28;20096;-80
2022/03/06 04:22:20;;;;;;;7.87;3.70;;;;;;;-4.41;67.38;99905.03;5060082;28;20049;-80
2022/03/06 04:24:47;;;;;;;8.40;3.80;;;;;;;-4.48;67.42;99867.16;5060285;28;20053;-81
2022/03/06 04:27:14;;;;;;;8.88;4.10;;;;;;;-4.24;67.09;99902.66;5059887;28;20076;-78
2022/03/06 04:29:43;;;;;;;9.73;4.40;;;;;;;-4.35;67.02;99873.94;5059588;28;20056;-81
2022/03/06 04:32:10;;;;;;;8.55;4.10;;;;;;;-4.30;67.13;99852.16;5059417;28;20053;-80
2022/03/06 04:34:37;;;;;;;6.90;3.75;;;;;;;-4.01;67.02;99892.22;5059284;28;20045;-80
2022/03/06 04:37:07;;;;;;;9.50;3.97;;;;;;;-3.95;66.74;99889.16;5055406;28;20072;-80
2022/03/06 04:39:35;;;;;;;13.02;4.68;;;;;;;-4.03;66.62;99857.19;5051545;28;20514;-81
2022/03/06 04:42:02;;;;;;;8.18;4.45;;;;;;;-3.92;66.10;99877.44;5058899;28;20080;-79
2022/03/06 04:44:29;;;;;;;9.80;4.60;;;;;;;-4.06;66.50;99857.88;5058596;28;20087;-81
2022/03/06 04:46:57;;;;;;;12.85;4.88;;;;;;;-3.91;66.52;99869.03;5059711;28;20049;-80
2022/03/06 04:49:24;;;;;;;10.23;4.95;;;;;;;-3.75;66.03;99890.38;5059797;28;20590;-80
2022/03/06 04:51:53;;;;;;;13.45;5.05;;;;;;;-3.77;66.01;99876.63;5058729;28;20053;-80
2022/03/06 04:54:20;;;;;;;11.23;5.35;;;;;;;-3.63;65.87;99901.31;5060498;28;20049;-82
2022/03/06 04:56:47;;;;;;;10.25;5.10;;;;;;;-3.51;65.42;99885.84;5061166;28;20099;-78
2022/03/06 04:59:14;;;;;;;14.50;5.82;;;;;;;-3.39;65.48;99880.59;5057163;28;20055;-79
2022/03/06 05:01:41;;;;;;;11.90;5.13;;;;;;;-3.28;64.89;99883.78;5058744;28;20057;-78
2022/03/06 05:04:09;;;;;;;10.93;5.18;;;;;;;-3.17;64.60;99867.41;5058271;28;20059;-78
2022/03/06 05:06:36;;;;;;;15.48;5.40;;;;;;;-3.05;64.69;99868.09;5057782;28;20394;-79
2022/03/06 05:09:03;;;;;;;9.50;4.95;;;;;;;-2.88;64.03;99876.75;5052425;28;20084;-80
2022/03/06 05:11:31;;;;;;;11.57;4.90;;;;;;;-2.73;63.69;99864.81;5044325;28;20563;-79
2022/03/06 05:13:59;;;;;;;11.98;5.03;;;;;;;-2.58;63.25;99853.66;5038204;28;20061;-78
2022/03/06 05:16:26;;;;;;;9.50;4.65;;;;;;;-2.47;63.13;99862.84;5038444;28;20061;-79
2022/03/06 05:19:00;;;;;;;11.82;5.07;;;;;;;-2.69;62.61;99833.53;5038469;28;20067;-81
2022/03/06 05:21:27;;;;;;;9.63;4.82;;;;;;;-2.43;62.72;99866.44;5038274;28;20057;-82
2022/03/06 05:23:54;;;;;;;8.93;4.50;;;;;;;-2.30;62.50;99858.66;5039518;28;20058;-78
2022/03/06 05:26:21;;;;;;;12.30;4.93;;;;;;;-2.18;62.20;99861.84;5038139;28;20499;-79
2022/03/06 05:28:48;;;;;;;10.00;5.05;;;;;;;-2.07;61.63;99847.94;5036617;28;20061;-78
2022/03/06 05:31:15;;;;;;;13.15;4.82;;;;;;;-2.04;61.05;99842.13;5036014;28;20049;-78
2022/03/06 05:33:45;;;;;;;13.20;5.78;;;;;;;-1.92;60.62;99852.13;5034796;28;20099;-80
2022/03/06 05:36:12;;;;;;;11.43;5.20;;;;;;;-1.88;60.69;99842.13;5035910;28;20068;-79
2022/03/06 05:38:39;;;;;;;12.40;5.63;;;;;;;-1.76;60.01;99848.72;5035481;28;20053;-80
2022/03/06 05:41:05;;;;;;;12.63;5.50;;;;;;;-1.72;60.14;99835.22;5035972;28;20539;-79
2022/03/06 05:43:35;;;;;;;15.00;5.65;;;;;;;-1.51;59.68;99848.28;5036286;28;20112;-80
2022/03/06 05:46:02;;;;;;;13.02;6.15;;;;;;;-1.43;59.25;99852.09;5038210;28;20077;-79
2022/03/06 05:48:31;;;;;;;12.75;5.95;;;;;;;-1.40;59.54;99847.13;5036872;28;20049;-77
2022/03/06 05:50:58;;;;;;;13.82;6.15;;;;;;;-1.33;58.85;99838.09;5037515;28;20050;-79
2022/03/06 05:53:25;;;;;;;12.60;5.60;;;;;;;-1.32;58.78;99840.72;5036270;28;20532;-76
2022/03/06 05:55:52;;;;;;;12.40;5.97;;;;;;;-1.21;58.32;99841.25;5046338;28;20055;-78
2022/03/06 05:58:22;;;;;;;13.85;6.32;;;;;;;-1.20;58.32;99831.91;5055321;28;20061;-79
2022/03/06 06:00:54;;;;;;;14.68;6.53;;;;;;;-1.69;58.42;99744.06;5041872;28;20057;-78
2022/03/06 06:03:28;;;;;;;12.48;5.95;;;;;;;-1.20;57.43;99801.13;5057996;28;20148;-78
2022/03/06 06:05:59;;;;;;;12.07;5.90;;;;;;;-1.06;58.14;99825.75;5072080;28;20167;-78
2022/03/06 06:08:28;;;;;;;14.90;5.43;;;;;;;-0.96;57.22;99816.84;5070715;28;20045;-77
2022/03/06 06:10:55;;;;;;;12.63;6.10;;;;;;;-0.99;57.04;99803.84;5066543;28;20095;-78
2022/03/06 06:13:23;;;;;;;12.70;5.32;;;;;;;-0.91;57.16;99808.53;5056217;28;20067;-79
2022/03/06 06:15:50;;;;;;;12.88;5.95;;;;;;;-0.73;56.79;99833.31;5055599;28;20044;-79
2022/03/06 06:18:18;;;;;;;14.93;5.60;;;;;;;-0.59;56.35;99833.97;5055347;28;20049;-79
2022/03/06 06:20:45;;;;;;;13.63;5.88;;;;;;;-0.57;55.97;99832.38;5054327;28;20072;-81
2022/03/06 06:23:16;;;;;;;13.75;6.20;;;;;;;-0.48;55.79;99835.34;5054264;28;20156;-80
2022/03/06 06:25:46;;;;;;;15.85;6.07;;;;;;;-0.49;55.66;99818.22;5051962;28;20045;-79
2022/03/06 06:28:17;;;;;;;;;;;;;;;-0.50;56.56;99814.75;5057509;28;20057;-81
2022/03/06 06:30:44;;;;;;;13.60;5.87;;;;;;;-0.42;55.73;99825.38;5042264;28;19974;-80
2022/03/06 06:33:16;;;;;;;14.82;6.57;;;;;;;-0.43;55.63;99823.59;5060050;28;20064;-79
2022/03/06 06:35:47;;;;;;;14.20;6.20;;;;;;;-0.29;55.03;99807.16;5054702;28;20128;-79
2022/03/06 06:38:23;;;;;;;13.82;6.13;;;;;;;-0.29;55.12;99807.16;5052579;28;20053;-80
2022/03/06 06:40:53;;;;;;;12.50;5.70;;;;;;;-0.13;54.88;99811.34;5046850;28;20144;-80
2022/03/06 06:43:23;;;;;;;13.95;5.90;;;;;;;-0.06;54.50;99807.34;5045321;28;20080;-79
2022/03/06 06:45:50;;;;;;;14.48;6.32;;;;;;;0.00;54.44;99810.19;5048127;28;20045;-81
2022/03/06 06:48:18;;;;;;;13.07;6.15;;;;;;;0.08;54.17;99782.25;5051980;28;20497;-77
2022/03/06 06:50:45;;;;;;;11.57;5.85;;;;;;;0.05;53.77;99779.56;5052037;28;20045;-81
2022/03/06 06:53:36;;;;;;;13.57;5.70;;;;;;;0.06;54.35;99789.88;5053909;28;20120;-80
2022/03/06 06:56:17;;;;;;;13.80;5.65;;;;;;;0.09;53.99;99802.00;5031355;28;20049;-80
2022/03/06 06:58:48;;;;;;;17.38;6.22;;;;;;;-0.05;53.74;99766.31;5052247;28;20049;-80
2022/03/06 07:01:17;;;;;;;18.02;6.10;;;;;;;0.07;53.61;99796.81;5053248;28;20053;-77
2022/03/06 07:03:44;;;;;;;11.90;5.90;;;;;;;-0.05;53.48;99750.91;5052142;28;20480;-80
2022/03/06 07:06:11;;;;;;;13.98;5.20;;;;;;;0.16;53.21;99768.94;5052905;28;20045;-77
2022/03/06 07:08:44;;;;;;;17.17;6.07;;;;;;;0.28;53.30;99775.41;5051071;28;20041;-79
2022/03/06 07:11:11;;;;;;;14.52;5.88;;;;;;;0.21;53.21;99761.44;5032134;28;20053;-80
2022/03/06 07:13:41;;;;;;;16.23;6.55;;;;;;;0.22;53.13;99773.47;5032510;28;20069;-78
2022/03/06 07:16:08;;;;;;;16.90;6.05;;;;;;;0.09;53.01;99743.81;5047972;28;20076;-79
2022/03/06 07:18:35;;;;;;;13.45;6.45;;;;;;;0.13;52.53;99722.56;5052751;28;20076;-79
2022/03/06 07:21:07;;;;;;;13.45;6.30;;;;;;;0.34;52.39;99753.41;5052524;28;20049;-80
2022/03/06 07:23:37;;;;;;;14.00;6.28;;;;;;;0.27;52.93;99738.56;5050695;28;20091;-78
2022/03/06 07:26:07;;;;;;;13.52;6.32;;;;;;;0.43;52.30;99752.06;5041364;28;20049;-78
2022/03/06 07:28:36;;;;;;;14.45;5.72;;;;;;;0.57;52.05;99743.25;5043651;28;20071;-79
2022/03/06 07:31:03;;;;;;;20.73;6.63;;;;;;;0.71;51.95;99747.28;5047937;28;20053;-79
2022/03/06 07:33:35;;;;;;;14.52;5.43;;;;;;;0.71;51.51;99718.97;5050324;28;20068;-79
2022/03/06 07:36:05;;;;;;;17.60;6.13;;;;;;;0.86;51.01;99740.97;5053371;28;20235;-82
2022/03/06 07:38:35;;;;;;;14.07;5.70;;;;;;;0.87;51.09;99746.19;5052834;28;20473;-80
2022/03/06 07:41:05;;;;;;;13.63;5.88;;;;;;;0.72;50.90;99709.56;5053529;28;20057;-79
2022/03/06 07:43:35;;;;;;;12.27;5.35;;;;;;;0.97;50.76;99742.28;5052502;28;20079;-79
2022/03/06 07:46:03;;;;;;;18.13;6.25;;;;;;;0.95;50.41;99729.38;5052705;28;20057;-78
2022/03/06 07:48:30;;;;;;;11.88;5.45;;;;;;;0.93;50.70;99738.72;5052137;28;20080;-79
2022/03/06 07:50:57;;;;;;;16.60;6.18;;;;;;;0.95;50.67;99747.38;5053611;28;20056;-80
2022/03/06 07:53:33;;;;;;;16.20;5.78;;;;;;;0.95;50.84;99728.50;5052832;28;20064;-78
2022/03/06 07:56:02;;;;;;;13.57;5.85;;;;;;;1.02;50.48;99743.34;5039021;28;20063;-80
2022/03/06 07:58:29;;;;;;;13.27;5.45;;;;;;;0.93;50.36;99694.13;5031294;28;20391;-79
2022/03/06 08:00:58;;;;;;;10.88;5.05;;;;;;;0.96;50.25;99709.66;5031402;28;20052;-79
2022/03/06 08:03:25;;;;;;;15.25;6.47;;;;;;;0.92;50.16;99706.06;5032352;28;20505;-78
2022/03/06 08:05:52;;;;;;;19.98;6.57;;;;;;;0.92;50.31;99689.78;5031643;28;20552;-78
2022/03/06 08:08:22;;;;;;;11.32;5.03;;;;;;;1.09;49.63;99718.72;5032357;28;20056;-78
2022/03/06 08:10:49;;;;;;;12.98;4.78;;;;;;;0.89;49.39;99682.81;5032570;28;20420;-78
2022/03/06 08:13:16;;;;;;;15.13;3.78;;;;;;;0.94;48.76;99680.44;5031237;28;20053;-80
2022/03/06 08:15:46;;;;;;;5.75;2.70;;;;;;;0.96;48.03;99697.66;5033035;28;20057;-80
2022/03/06 08:18:15;;;;;;;4.68;1.98;;;;;;;0.88;47.22;99708.47;5030344;28;20461;-78
2022/03/06 08:20:43;;;;;;;11.25;3.20;;;;;;;0.86;47.47;99707.53;5032007;28;20058;-80
2022/03/06 08:23:10;;;;;;;9.30;2.35;;;;;;;0.60;47.09;99682.56;5033063;28;20103;-79
2022/03/06 08:25:37;;;;;;;12.82;3.15;;;;;;;0.53;47.59;99680.53;5031763;28;20057;-79
2022/03/06 08:28:04;;;;;;;14.05;5.95;;;;;;;0.40;47.04;99674.00;5031917;28;20509;-79
2022/03/06 08:30:31;;;;;;;13.60;4.00;;;;;;;0.63;47.22;99691.22;5032334;28;20049;-78
2022/03/06 08:32:58;;;;;;;4.95;2.88;;;;;;;0.46;46.28;99644.25;5033040;28;20462;-78
2022/03/06 08:35:25;;;;;;;7.03;2.78;;;;;;;0.55;46.35;99671.19;5032449;28;20115;-80
2022/03/06 08:37:55;;;;;;;25.50;4.83;;;;;;;0.47;46.15;99646.88;5032889;28;20054;-79
2022/03/06 08:40:23;;;;;;;9.57;4.28;;;;;;;0.48;46.21;99647.78;5032590;28;20071;-77
2022/03/06 08:42:50;;;;;;;19.27;5.75;;;;;;;0.69;46.22;99652.88;5031063;28;20482;-79
2022/03/06 08:45:23;;;;;;;23.17;8.57;;;;;;;0.37;45.91;99565.97;5032405;28;20131;-81
2022/03/06 08:47:51;;;;;;;24.35;8.40;;;;;;;1.21;45.51;99640.31;5032344;28;20108;-79
2022/03/06 08:50:21;;;;;;;18.80;7.15;;;;;;;1.40;45.16;99636.72;5031996;28;20145;-80
2022/03/06 08:52:50;;;;;;;8.80;2.75;;;;;;;1.46;44.34;99648.06;5031380;28;20053;-79
2022/03/06 08:55:17;;;;;;;17.30;6.28;;;;;;;1.33;44.55;99602.97;5030131;28;20064;-78
2022/03/06 08:57:44;;;;;;;8.02;3.58;;;;;;;1.61;43.94;99609.97;5031928;28;20057;-78
2022/03/06 09:00:14;;;;;;;;;;;;;;;1.71;44.65;99622.38;5031799;28;20049;-79
2022/03/06 09:02:44;;;;;;;12.00;4.25;;;;;;;1.70;43.85;99638.66;5031430;28;19925;-78
2022/03/06 09:05:12;;;;;;;12.15;3.90;;;;;;;1.74;43.33;99629.31;5032715;28;20053;-80
2022/03/06 09:07:39;;;;;;;13.77;5.47;;;;;;;1.62;43.19;99609.19;5035063;28;20045;-80
2022/03/06 09:10:09;;;;;;;11.52;2.63;;;;;;;1.64;42.87;99607.53;5034915;28;20421;-78
2022/03/06 09:12:38;;;;;;;18.38;6.95;;;;;;;1.71;43.21;99616.34;5034760;28;20056;-81
2022/03/06 09:15:09;;;;;;;18.10;5.85;;;;;;;1.62;43.16;99575.69;5033159;28;20152;-80
2022/03/06 09:17:37;;;;;;;14.00;4.38;;;;;;;1.82;42.41;99579.81;5034998;28;20604;-78
2022/03/06 09:20:09;;;;;;;16.00;5.30;;;;;;;2.18;42.63;99597.34;5035160;28;20180;-78
2022/03/06 09:22:36;;;;;;;15.27;4.85;;;;;;;2.31;42.11;99608.06;5034627;28;20049;-80
2022/03/06 09:25:03;;;;;;;7.40;3.60;;;;;;;2.32;41.85;99589.16;5035208;28;20108;-80
2022/03/06 09:27:35;;;;;;;12.18;4.70;;;;;;;2.17;42.00;99594.69;5034764;28;20049;-79
2022/03/06 09:30:03;;;;;;;13.20;3.30;;;;;;;1.98;41.96;99600.94;5033322;28;20048;-79
2022/03/06 09:32:32;;;;;;;9.45;3.80;;;;;;;1.78;42.02;99577.09;5034408;28;20053;-79
2022/03/06 09:35:00;;;;;;;14.82;5.03;;;;;;;1.61;42.67;99585.13;5034714;28;20060;-80
2022/03/06 09:37:29;;;;;;;11.45;4.38;;;;;;;1.48;42.74;99580.34;5034786;28;20053;-79
2022/03/06 09:39:56;;;;;;;10.43;3.53;;;;;;;1.48;43.07;99592.34;5033130;28;20140;-79
2022/03/06 09:42:23;;;;;;;9.07;3.10;;;;;;;1.30;43.09;99570.28;5034666;28;20069;-79
2022/03/06 09:44:50;;;;;;;9.35;3.00;;;;;;;1.48;43.37;99571.75;5034593;28;20057;-79
2022/03/06 09:47:22;;;;;;;14.50;4.47;;;;;;;1.43;43.37;99579.31;5035329;28;20057;-78
2022/03/06 09:49:49;;;;;;;11.65;4.35;;;;;;;1.40;43.53;99580.09;5037251;28;20057;-79
2022/03/06 09:52:16;;;;;;;7.93;2.92;;;;;;;1.31;43.35;99590.06;5052025;28;20061;-78
2022/03/06 09:54:43;;;;;;;10.18;4.25;;;;;;;1.36;43.96;99580.81;5050931;28;20057;-78
2022/03/06 09:57:10;;;;;;;9.27;5.15;;;;;;;1.62;43.68;99576.56;5050192;28;20055;-79
2022/03/06 09:59:37;;;;;;;13.88;5.45;;;;;;;1.76;43.64;99569.31;5037423;28;20049;-80
2022/03/06 10:02:06;;;;;;;15.93;5.75;;;;;;;2.10;43.04;99564.41;5034224;28;20076;-78
2022/03/06 10:04:34;;;;;;;10.82;4.38;;;;;;;2.40;42.68;99561.94;5034559;28;20057;-77
2022/03/06 10:07:10;;;;;;;6.57;2.90;;;;;;;2.44;42.20;99571.50;5034881;28;20060;-79
2022/03/06 10:09:56;;;;;;;6.82;3.08;;;;;;;2.13;42.87;99561.91;5034000;28;20057;-79
2022/03/06 10:12:27;;;;;;;10.07;3.55;;;;;;;2.08;42.25;99553.19;5035492;28;20505;-80
2022/03/06 10:15:06;;;;;;;12.88;5.05;;;;;;;2.02;42.80;99571.88;5034124;28;20231;-79
2022/03/06 10:17:34;;;;;;;8.85;3.20;;;;;;;1.61;42.85;99525.00;5043837;28;20060;-78
2022/03/06 10:20:09;;;;;;;4.97;2.83;;;;;;;1.46;43.73;99553.69;5037969;28;20472;-79
2022/03/06 10:22:40;;;;;;;7.72;3.60;;;;;;;1.32;43.50;99524.03;5035759;28;20520;-80
2022/03/06 10:25:16;;;;;;;7.63;3.15;;;;;;;1.53;43.66;99539.34;5036017;28;20485;-79
2022/03/06 10:27:59;;;;;;;11.50;3.60;;;;;;;1.36;43.66;99539.63;5034703;28;20089;-80
2022/03/06 10:30:41;;;;;;;27.33;10.15;;;;;;;1.05;44.44;99511.06;5053469;28;20057;-82
2022/03/06 10:33:17;;;;;;;9.40;2.92;;;;;;;1.09;43.43;99510.34;5055016;28;20049;-79
2022/03/06 10:35:46;;;;;;;7.75;2.83;;;;;;;1.41;43.17;99529.50;5052223;28;20067;-80
2022/03/06 10:38:33;;;;;;;9.30;3.28;;;;;;;1.53;43.56;99536.78;5036247;28;20053;-79
2022/03/06 10:41:09;;;;;;;14.38;5.40;;;;;;;1.70;43.43;99527.91;5034483;28;20049;-77
2022/03/06 10:43:36;;;;;;;14.57;4.70;;;;;;;1.76;43.38;99504.06;5034111;28;20075;-80
2022/03/06 10:46:12;;;;;;;8.93;3.35;;;;;;;1.94;43.21;99532.13;5065900;28;20060;-78
2022/03/06 10:48:42;;;;;;;10.27;3.90;;;;;;;1.82;43.37;99507.69;5034131;28;20063;-79
2022/03/06 10:51:12;;;;;;;7.43;3.28;;;;;;;2.06;43.59;99514.47;5034256;28;20080;-78
2022/03/06 10:53:40;;;;;;;7.75;2.83;;;;;;;2.34;42.59;99502.44;5034180;28;20069;-79
2022/03/06 10:56:14;;;;;;;12.90;3.65;;;;;;;2.47;42.16;99486.50;5037565;28;20500;-81
2022/03/06 10:58:44;;;;;;;8.10;3.92;;;;;;;2.44;42.11;99481.28;5053388;28;20140;-79
2022/03/06 11:01:28;;;;;;;11.35;4.35;;;;;;;2.55;41.58;99477.31;5052744;28;20455;-78
2022/03/06 11:04:00;;;;;;;29.00;11.07;;;;;;;2.61;41.46;99494.66;5052916;28;20168;-78
2022/03/06 11:06:28;;;;;;;15.68;4.15;;;;;;;2.54;41.11;99454.03;5052227;28;20048;-79
2022/03/06 11:08:56;;;;;;;17.55;6.88;;;;;;;2.70;40.48;99478.59;5052333;28;20068;-79
2022/03/06 11:11:23;;;;;;;21.83;9.30;;;;;;;2.41;40.93;99427.03;5043774;28;20402;-79
2022/03/06 11:13:55;;;;;;;20.27;8.38;;;;;;;2.65;41.25;99450.97;5040505;28;20061;-79
2022/03/06 11:16:25;;;;;;;12.00;4.25;;;;;;;2.74;40.52;99441.75;5051458;28;20076;-78
2022/03/06 11:18:58;;;;;;;8.23;2.83;;;;;;;2.76;40.71;99442.66;5051570;28;20076;-79
2022/03/06 11:21:27;;;;;;;8.70;3.45;;;;;;;3.03;40.03;99448.56;5053066;28;20060;-81
2022/03/06 11:23:57;;;;;;;12.10;2.60;;;;;;;2.98;39.73;99437.25;5053381;28;20064;-80
2022/03/06 11:26:32;;;;;;;6.93;2.65;;;;;;;2.77;39.21;99416.88;5052041;28;20532;-82
2022/03/06 11:29:36;;;;;;;7.63;2.70;;;;;;;2.96;39.75;99433.75;5052278;28;20056;-81
2022/03/06 11:32:05;;;;;;;5.38;2.55;;;;;;;2.93;39.81;99433.69;5052454;28;20473;-80
2022/03/06 11:34:35;;;;;;;6.32;2.70;;;;;;;2.93;39.62;99440.53;5053024;28;20045;-81
2022/03/06 11:37:15;;;;;;;6.47;3.05;;;;;;;2.99;39.65;99400.28;5043299;28;20056;-82
2022/03/06 11:39:42;;;;;;;8.70;3.60;;;;;;;3.10;39.59;99408.31;5033862;28;20049;-81
2022/03/06 11:42:48;;;;;;;13.27;4.28;;;;;;;2.92;39.89;99392.34;5033819;28;20053;-79
2022/03/06 11:45:57;;;;;;;9.00;3.90;;;;;;;2.77;40.38;99385.94;5032036;28;20072;-79